Brandon Municipal Airport
CYBR : now visible

Airfield :











YOU CAN JOIN US ON...

 
LOGIN :

Register | Disclaimer

   EN    FR    IT 

 









Legend :    VFR   Marginal VFR   IFR   Intensive IFR   Very Intensive IFR
Visi :
Ceiling :
>= 8 km
>= 3000ft
5 to 8 km
1000 to 3000 ft
1500m to 5 km
500 to 1000 ft
800 to 1500m
200 to 500 ft
< 800m
< 200 ft
Symbols :   Thunderstorms  Fog  Heavy snow  Heavy precipitations  Wind > 20 kt






- Airport Elevation : 1343 ft
- IATA code : YBR


CYBR - Brandon Municipal

CURRENT METAR :
  • 150500Z 09007KT 15SM BKN017 OVC070 M02/M05 A3037 RMK SC6AC2 SLP314

EXPIRED METARs :
  • 150400Z 09005KT 15SM FEW020 OVC074 M02/M05 A3038 RMK SC2AC6 SLP316
  • 150300Z 08010KT 15SM SCT020 SCT048 OVC074 M02/M05 A3037 RMK SC3SC1AC4 SLP314

TAF TAF CYBR
Valid from the 15 at 00:00 until the 15 at 12:00 UTC


142341Z 1500/1512 07007KT P6SM FEW020 BKN070
TEMPO 1500/1506 BKN020 OVC060
FM150800 35005KT P6SM BKN015 OVC060
TEMPO 1508/1512 SCT015 BKN060 RMK NXT FCST BY 150600Z
CZWG FIR / North America



MET'MAP, your aeronautical weather chart ! - Copyright ORBIFLY December 2007 - Disclaimer

ORBIFLY MET'MAP TEAM :

Programming & Development : Alexandra Zaïnal
Concept & original design : Baudouin d'Aumeries
Assistance for programming : Marc-Olivier Méhu
Technical & hardware support : Manuel Goepfert

Contact : metmap@orbifly.com




SOURCES & CREDITS :

   NOAA       Earth
Advisory